sensor_id;sensor_type;location;lat;lon;timestamp;temperature;humidity
85808;DHT22;76250;48.718;9.000;2024-03-02T00:00:41;8.80;65.90
85808;DHT22;76250;48.718;9.000;2024-03-02T00:03:11;8.80;65.80
85808;DHT22;76250;48.718;9.000;2024-03-02T00:05:42;8.80;65.90
85808;DHT22;76250;48.718;9.000;2024-03-02T00:08:09;8.80;65.70
85808;DHT22;76250;48.718;9.000;2024-03-02T00:10:39;8.80;65.60
85808;DHT22;76250;48.718;9.000;2024-03-02T00:13:09;8.80;65.50
85808;DHT22;76250;48.718;9.000;2024-03-02T00:15:47;8.70;65.50
85808;DHT22;76250;48.718;9.000;2024-03-02T00:18:20;8.70;65.60
85808;DHT22;76250;48.718;9.000;2024-03-02T00:20:56;8.70;65.50
85808;DHT22;76250;48.718;9.000;2024-03-02T00:23:27;8.70;65.30
85808;DHT22;76250;48.718;9.000;2024-03-02T00:25:59;8.70;65.50
85808;DHT22;76250;48.718;9.000;2024-03-02T00:28:35;8.60;65.60
85808;DHT22;76250;48.718;9.000;2024-03-02T00:31:05;8.60;65.60
85808;DHT22;76250;48.718;9.000;2024-03-02T00:33:36;8.60;65.60
85808;DHT22;76250;48.718;9.000;2024-03-02T00:36:06;8.60;65.80
85808;DHT22;76250;48.718;9.000;2024-03-02T00:38:47;8.60;65.90
85808;DHT22;76250;48.718;9.000;2024-03-02T00:41:29;8.60;65.60
85808;DHT22;76250;48.718;9.000;2024-03-02T00:44:04;8.60;66.30
85808;DHT22;76250;48.718;9.000;2024-03-02T00:46:41;8.60;66.00
85808;DHT22;76250;48.718;9.000;2024-03-02T00:51:53;8.60;65.80
85808;DHT22;76250;48.718;9.000;2024-03-02T00:54:23;8.60;66.00
85808;DHT22;76250;48.718;9.000;2024-03-02T00:56:54;8.60;66.10
85808;DHT22;76250;48.718;9.000;2024-03-02T00:59:25;8.60;66.30
85808;DHT22;76250;48.718;9.000;2024-03-02T01:01:53;8.60;66.10
85808;DHT22;76250;48.718;9.000;2024-03-02T01:04:21;8.60;66.20
85808;DHT22;76250;48.718;9.000;2024-03-02T01:06:49;8.60;66.70
85808;DHT22;76250;48.718;9.000;2024-03-02T01:09:18;8.60;66.20
85808;DHT22;76250;48.718;9.000;2024-03-02T01:11:46;8.60;66.20
85808;DHT22;76250;48.718;9.000;2024-03-02T01:14:14;8.60;66.20
85808;DHT22;76250;48.718;9.000;2024-03-02T01:16:42;8.60;66.00
85808;DHT22;76250;48.718;9.000;2024-03-02T01:19:10;8.60;66.30
85808;DHT22;76250;48.718;9.000;2024-03-02T01:21:38;8.60;66.40
85808;DHT22;76250;48.718;9.000;2024-03-02T01:24:06;8.60;66.20
85808;DHT22;76250;48.718;9.000;2024-03-02T01:26:34;8.60;66.10
85808;DHT22;76250;48.718;9.000;2024-03-02T01:29:02;8.50;65.80
85808;DHT22;76250;48.718;9.000;2024-03-02T01:31:30;8.50;65.80
85808;DHT22;76250;48.718;9.000;2024-03-02T01:33:58;8.50;66.10
85808;DHT22;76250;48.718;9.000;2024-03-02T01:36:26;8.50;66.10
85808;DHT22;76250;48.718;9.000;2024-03-02T01:38:54;8.50;66.10
85808;DHT22;76250;48.718;9.000;2024-03-02T01:41:22;8.50;66.40
85808;DHT22;76250;48.718;9.000;2024-03-02T01:43:49;8.50;66.50
85808;DHT22;76250;48.718;9.000;2024-03-02T01:46:17;8.50;66.50
85808;DHT22;76250;48.718;9.000;2024-03-02T01:48:45;8.40;66.60
85808;DHT22;76250;48.718;9.000;2024-03-02T01:51:13;8.40;66.20
85808;DHT22;76250;48.718;9.000;2024-03-02T01:53:42;8.40;65.90
85808;DHT22;76250;48.718;9.000;2024-03-02T01:56:10;8.40;65.40
85808;DHT22;76250;48.718;9.000;2024-03-02T01:58:38;8.40;65.60
85808;DHT22;76250;48.718;9.000;2024-03-02T02:01:06;8.30;65.50
85808;DHT22;76250;48.718;9.000;2024-03-02T02:03:34;8.30;65.50
85808;DHT22;76250;48.718;9.000;2024-03-02T02:06:03;8.20;65.40
85808;DHT22;76250;48.718;9.000;2024-03-02T02:08:31;8.20;65.40
85808;DHT22;76250;48.718;9.000;2024-03-02T02:10:59;8.10;65.30
85808;DHT22;76250;48.718;9.000;2024-03-02T02:13:27;8.10;65.40
85808;DHT22;76250;48.718;9.000;2024-03-02T02:15:55;8.00;65.30
85808;DHT22;76250;48.718;9.000;2024-03-02T02:18:23;7.90;65.20
85808;DHT22;76250;48.718;9.000;2024-03-02T02:20:52;7.90;65.30
85808;DHT22;76250;48.718;9.000;2024-03-02T02:23:20;7.80;65.30
85808;DHT22;76250;48.718;9.000;2024-03-02T02:25:48;7.80;65.40
85808;DHT22;76250;48.718;9.000;2024-03-02T02:28:16;7.70;65.30
85808;DHT22;76250;48.718;9.000;2024-03-02T02:30:44;7.60;65.20
85808;DHT22;76250;48.718;9.000;2024-03-02T02:33:12;7.60;65.20
85808;DHT22;76250;48.718;9.000;2024-03-02T02:35:40;7.50;65.50
85808;DHT22;76250;48.718;9.000;2024-03-02T02:38:08;7.50;65.60
85808;DHT22;76250;48.718;9.000;2024-03-02T02:40:36;7.40;65.60
85808;DHT22;76250;48.718;9.000;2024-03-02T02:43:04;7.40;65.50
85808;DHT22;76250;48.718;9.000;2024-03-02T02:45:32;7.30;65.30
85808;DHT22;76250;48.718;9.000;2024-03-02T02:48:00;7.20;65.30
85808;DHT22;76250;48.718;9.000;2024-03-02T02:50:30;7.20;65.30
85808;DHT22;76250;48.718;9.000;2024-03-02T02:52:58;7.10;65.20
85808;DHT22;76250;48.718;9.000;2024-03-02T02:55:26;7.10;65.30
85808;DHT22;76250;48.718;9.000;2024-03-02T02:57:54;7.00;66.00
85808;DHT22;76250;48.718;9.000;2024-03-02T03:00:22;7.00;65.40
85808;DHT22;76250;48.718;9.000;2024-03-02T03:02:50;6.90;65.50
85808;DHT22;76250;48.718;9.000;2024-03-02T03:05:19;6.90;65.60
85808;DHT22;76250;48.718;9.000;2024-03-02T03:07:47;6.80;65.70
85808;DHT22;76250;48.718;9.000;2024-03-02T03:10:17;6.80;65.90
85808;DHT22;76250;48.718;9.000;2024-03-02T03:12:46;6.80;66.10
85808;DHT22;76250;48.718;9.000;2024-03-02T03:15:14;6.70;66.00
85808;DHT22;76250;48.718;9.000;2024-03-02T03:17:44;6.70;66.10
85808;DHT22;76250;48.718;9.000;2024-03-02T03:20:14;6.70;66.10
85808;DHT22;76250;48.718;9.000;2024-03-02T03:22:43;6.70;66.20
85808;DHT22;76250;48.718;9.000;2024-03-02T03:25:11;6.60;66.00
85808;DHT22;76250;48.718;9.000;2024-03-02T03:27:40;6.60;66.40
85808;DHT22;76250;48.718;9.000;2024-03-02T03:30:10;6.60;66.60
85808;DHT22;76250;48.718;9.000;2024-03-02T03:32:38;6.60;66.70
85808;DHT22;76250;48.718;9.000;2024-03-02T03:35:06;6.60;66.70
85808;DHT22;76250;48.718;9.000;2024-03-02T03:37:35;6.50;66.70
85808;DHT22;76250;48.718;9.000;2024-03-02T03:40:03;6.50;66.70
85808;DHT22;76250;48.718;9.000;2024-03-02T03:42:38;6.50;66.80
85808;DHT22;76250;48.718;9.000;2024-03-02T03:45:07;6.50;67.10
85808;DHT22;76250;48.718;9.000;2024-03-02T03:47:35;6.50;66.80
85808;DHT22;76250;48.718;9.000;2024-03-02T03:50:04;6.50;66.80
85808;DHT22;76250;48.718;9.000;2024-03-02T03:52:35;6.50;66.90
85808;DHT22;76250;48.718;9.000;2024-03-02T03:55:03;6.50;66.90
85808;DHT22;76250;48.718;9.000;2024-03-02T03:57:33;6.50;67.10
85808;DHT22;76250;48.718;9.000;2024-03-02T04:00:02;6.50;67.10
85808;DHT22;76250;48.718;9.000;2024-03-02T04:02:38;6.40;67.00
85808;DHT22;76250;48.718;9.000;2024-03-02T04:05:06;6.40;67.00
85808;DHT22;76250;48.718;9.000;2024-03-02T04:07:39;6.40;67.00
85808;DHT22;76250;48.718;9.000;2024-03-02T04:10:11;6.40;66.90
85808;DHT22;76250;48.718;9.000;2024-03-02T04:12:40;6.40;66.90
85808;DHT22;76250;48.718;9.000;2024-03-02T04:15:08;6.40;66.70
85808;DHT22;76250;48.718;9.000;2024-03-02T04:17:36;6.40;66.60
85808;DHT22;76250;48.718;9.000;2024-03-02T04:20:05;6.30;66.60
85808;DHT22;76250;48.718;9.000;2024-03-02T04:22:34;6.30;66.80
85808;DHT22;76250;48.718;9.000;2024-03-02T04:25:03;6.30;66.90
85808;DHT22;76250;48.718;9.000;2024-03-02T04:27:32;6.30;66.90
85808;DHT22;76250;48.718;9.000;2024-03-02T04:30:01;6.30;67.10
85808;DHT22;76250;48.718;9.000;2024-03-02T04:32:29;6.30;67.10
85808;DHT22;76250;48.718;9.000;2024-03-02T04:34:57;6.20;67.10
85808;DHT22;76250;48.718;9.000;2024-03-02T04:37:25;6.20;67.10
85808;DHT22;76250;48.718;9.000;2024-03-02T04:39:53;6.20;67.20
85808;DHT22;76250;48.718;9.000;2024-03-02T04:42:21;6.20;67.10
85808;DHT22;76250;48.718;9.000;2024-03-02T04:44:50;6.20;67.10
85808;DHT22;76250;48.718;9.000;2024-03-02T04:47:18;6.20;67.10
85808;DHT22;76250;48.718;9.000;2024-03-02T04:49:46;6.20;67.00
85808;DHT22;76250;48.718;9.000;2024-03-02T04:52:14;6.20;67.00
85808;DHT22;76250;48.718;9.000;2024-03-02T04:54:42;6.20;67.10
85808;DHT22;76250;48.718;9.000;2024-03-02T04:57:29;6.10;67.10
85808;DHT22;76250;48.718;9.000;2024-03-02T04:59:57;6.10;67.30
85808;DHT22;76250;48.718;9.000;2024-03-02T05:02:25;6.10;67.30
85808;DHT22;76250;48.718;9.000;2024-03-02T05:04:53;6.10;67.30
85808;DHT22;76250;48.718;9.000;2024-03-02T05:07:21;6.10;67.40
85808;DHT22;76250;48.718;9.000;2024-03-02T05:09:49;6.10;67.40
85808;DHT22;76250;48.718;9.000;2024-03-02T05:12:17;6.10;67.60
85808;DHT22;76250;48.718;9.000;2024-03-02T05:15:04;6.10;67.50
85808;DHT22;76250;48.718;9.000;2024-03-02T05:17:32;6.10;67.60
85808;DHT22;76250;48.718;9.000;2024-03-02T05:20:00;6.10;67.70
85808;DHT22;76250;48.718;9.000;2024-03-02T05:22:29;6.10;67.50
85808;DHT22;76250;48.718;9.000;2024-03-02T05:24:57;6.10;67.70
85808;DHT22;76250;48.718;9.000;2024-03-02T05:27:27;6.10;67.70
85808;DHT22;76250;48.718;9.000;2024-03-02T05:29:55;6.10;67.60
85808;DHT22;76250;48.718;9.000;2024-03-02T05:32:23;6.10;67.50
85808;DHT22;76250;48.718;9.000;2024-03-02T05:34:51;6.10;67.50
85808;DHT22;76250;48.718;9.000;2024-03-02T05:37:19;6.10;67.30
85808;DHT22;76250;48.718;9.000;2024-03-02T05:39:47;6.10;67.60
85808;DHT22;76250;48.718;9.000;2024-03-02T05:42:15;6.10;67.60
85808;DHT22;76250;48.718;9.000;2024-03-02T05:44:44;6.10;67.90
85808;DHT22;76250;48.718;9.000;2024-03-02T05:47:12;6.10;68.20
85808;DHT22;76250;48.718;9.000;2024-03-02T05:49:40;6.10;68.20
85808;DHT22;76250;48.718;9.000;2024-03-02T05:52:08;6.10;68.20
85808;DHT22;76250;48.718;9.000;2024-03-02T05:54:36;6.10;68.00
85808;DHT22;76250;48.718;9.000;2024-03-02T05:57:04;6.10;67.80
85808;DHT22;76250;48.718;9.000;2024-03-02T05:59:49;6.10;67.50
85808;DHT22;76250;48.718;9.000;2024-03-02T06:02:17;6.10;67.50
85808;DHT22;76250;48.718;9.000;2024-03-02T06:04:45;6.20;67.70
85808;DHT22;76250;48.718;9.000;2024-03-02T06:07:13;6.10;67.90
85808;DHT22;76250;48.718;9.000;2024-03-02T06:09:41;6.10;68.00
85808;DHT22;76250;48.718;9.000;2024-03-02T06:12:09;6.20;68.10
85808;DHT22;76250;48.718;9.000;2024-03-02T06:14:37;6.20;68.10
85808;DHT22;76250;48.718;9.000;2024-03-02T06:17:05;6.20;68.00
85808;DHT22;76250;48.718;9.000;2024-03-02T06:19:34;6.10;67.80
85808;DHT22;76250;48.718;9.000;2024-03-02T06:22:01;6.20;67.90
85808;DHT22;76250;48.718;9.000;2024-03-02T06:24:29;6.20;68.00
85808;DHT22;76250;48.718;9.000;2024-03-02T06:26:57;6.20;68.20
85808;DHT22;76250;48.718;9.000;2024-03-02T06:29:25;6.20;68.10
85808;DHT22;76250;48.718;9.000;2024-03-02T06:31:53;6.30;68.50
85808;DHT22;76250;48.718;9.000;2024-03-02T06:34:21;6.30;68.70
85808;DHT22;76250;48.718;9.000;2024-03-02T06:36:50;6.30;68.40
85808;DHT22;76250;48.718;9.000;2024-03-02T06:39:18;6.30;68.30
85808;DHT22;76250;48.718;9.000;2024-03-02T06:41:46;6.40;68.50
85808;DHT22;76250;48.718;9.000;2024-03-02T06:44:14;6.40;68.90
85808;DHT22;76250;48.718;9.000;2024-03-02T06:46:42;6.40;69.10
85808;DHT22;76250;48.718;9.000;2024-03-02T06:49:10;6.50;69.20
85808;DHT22;76250;48.718;9.000;2024-03-02T06:51:38;6.50;69.20
85808;DHT22;76250;48.718;9.000;2024-03-02T06:54:06;6.60;69.20
85808;DHT22;76250;48.718;9.000;2024-03-02T06:56:34;6.60;69.00
85808;DHT22;76250;48.718;9.000;2024-03-02T06:59:02;6.70;69.30
85808;DHT22;76250;48.718;9.000;2024-03-02T07:01:30;6.80;69.10
85808;DHT22;76250;48.718;9.000;2024-03-02T07:03:58;6.80;69.30
85808;DHT22;76250;48.718;9.000;2024-03-02T07:06:26;6.80;69.30
85808;DHT22;76250;48.718;9.000;2024-03-02T07:08:54;6.90;69.60
85808;DHT22;76250;48.718;9.000;2024-03-02T07:11:22;6.90;69.60
85808;DHT22;76250;48.718;9.000;2024-03-02T07:13:50;7.00;69.90
85808;DHT22;76250;48.718;9.000;2024-03-02T07:16:18;7.10;70.00
85808;DHT22;76250;48.718;9.000;2024-03-02T07:18:49;7.20;70.10
85808;DHT22;76250;48.718;9.000;2024-03-02T07:21:19;7.20;69.80
85808;DHT22;76250;48.718;9.000;2024-03-02T07:23:49;7.30;69.30
85808;DHT22;76250;48.718;9.000;2024-03-02T07:26:17;7.30;69.10
85808;DHT22;76250;48.718;9.000;2024-03-02T07:28:51;7.30;69.00
85808;DHT22;76250;48.718;9.000;2024-03-02T07:31:19;7.40;68.90
85808;DHT22;76250;48.718;9.000;2024-03-02T07:33:47;7.40;68.90
85808;DHT22;76250;48.718;9.000;2024-03-02T07:36:15;7.40;69.40
85808;DHT22;76250;48.718;9.000;2024-03-02T07:38:43;7.40;68.90
85808;DHT22;76250;48.718;9.000;2024-03-02T07:41:12;7.50;69.10
85808;DHT22;76250;48.718;9.000;2024-03-02T07:43:40;7.50;69.10
85808;DHT22;76250;48.718;9.000;2024-03-02T07:46:08;7.50;68.90
85808;DHT22;76250;48.718;9.000;2024-03-02T07:48:36;7.50;68.80
85808;DHT22;76250;48.718;9.000;2024-03-02T07:51:05;7.50;68.50
85808;DHT22;76250;48.718;9.000;2024-03-02T07:53:33;7.50;68.50
85808;DHT22;76250;48.718;9.000;2024-03-02T07:56:01;7.50;68.70
85808;DHT22;76250;48.718;9.000;2024-03-02T07:58:30;7.50;68.70
85808;DHT22;76250;48.718;9.000;2024-03-02T08:00:58;7.60;68.70
85808;DHT22;76250;48.718;9.000;2024-03-02T08:03:29;7.60;68.80
85808;DHT22;76250;48.718;9.000;2024-03-02T08:05:57;7.70;69.10
85808;DHT22;76250;48.718;9.000;2024-03-02T08:08:25;7.70;68.90
85808;DHT22;76250;48.718;9.000;2024-03-02T08:10:53;7.80;69.10
85808;DHT22;76250;48.718;9.000;2024-03-02T08:13:21;7.80;69.30
85808;DHT22;76250;48.718;9.000;2024-03-02T08:15:49;7.90;69.10
85808;DHT22;76250;48.718;9.000;2024-03-02T08:18:18;8.00;69.20
85808;DHT22;76250;48.718;9.000;2024-03-02T08:20:46;8.10;69.30
85808;DHT22;76250;48.718;9.000;2024-03-02T08:23:14;8.20;69.30
85808;DHT22;76250;48.718;9.000;2024-03-02T08:25:42;8.30;69.50
85808;DHT22;76250;48.718;9.000;2024-03-02T08:28:11;8.50;69.20
85808;DHT22;76250;48.718;9.000;2024-03-02T08:30:39;8.60;69.10
85808;DHT22;76250;48.718;9.000;2024-03-02T08:33:07;8.70;69.30
85808;DHT22;76250;48.718;9.000;2024-03-02T08:35:34;8.80;68.80
85808;DHT22;76250;48.718;9.000;2024-03-02T08:38:04;8.90;68.80
85808;DHT22;76250;48.718;9.000;2024-03-02T08:40:32;9.00;68.70
85808;DHT22;76250;48.718;9.000;2024-03-02T08:43:00;9.10;68.60
85808;DHT22;76250;48.718;9.000;2024-03-02T08:45:28;9.20;68.60
85808;DHT22;76250;48.718;9.000;2024-03-02T08:47:56;9.30;68.40
85808;DHT22;76250;48.718;9.000;2024-03-02T08:50:24;9.40;68.80
85808;DHT22;76250;48.718;9.000;2024-03-02T08:52:52;9.50;68.10
85808;DHT22;76250;48.718;9.000;2024-03-02T08:55:20;9.70;68.00
85808;DHT22;76250;48.718;9.000;2024-03-02T08:57:48;9.70;67.50
85808;DHT22;76250;48.718;9.000;2024-03-02T09:00:18;9.80;67.40
85808;DHT22;76250;48.718;9.000;2024-03-02T09:02:47;9.90;67.20
85808;DHT22;76250;48.718;9.000;2024-03-02T09:05:15;10.00;67.20
85808;DHT22;76250;48.718;9.000;2024-03-02T09:07:43;10.10;67.40
85808;DHT22;76250;48.718;9.000;2024-03-02T09:10:11;10.20;67.10
85808;DHT22;76250;48.718;9.000;2024-03-02T09:12:39;10.30;67.00
85808;DHT22;76250;48.718;9.000;2024-03-02T09:15:08;10.40;66.90
85808;DHT22;76250;48.718;9.000;2024-03-02T09:17:36;10.50;66.70
85808;DHT22;76250;48.718;9.000;2024-03-02T09:20:05;10.60;66.40
85808;DHT22;76250;48.718;9.000;2024-03-02T09:22:33;10.70;66.50
85808;DHT22;76250;48.718;9.000;2024-03-02T09:25:01;10.90;66.60
85808;DHT22;76250;48.718;9.000;2024-03-02T09:27:29;11.00;66.30
85808;DHT22;76250;48.718;9.000;2024-03-02T09:29:57;11.10;66.30
85808;DHT22;76250;48.718;9.000;2024-03-02T09:32:25;11.20;65.60
85808;DHT22;76250;48.718;9.000;2024-03-02T09:34:53;11.30;65.60
85808;DHT22;76250;48.718;9.000;2024-03-02T09:37:23;11.50;65.30
85808;DHT22;76250;48.718;9.000;2024-03-02T09:39:51;11.60;65.40
85808;DHT22;76250;48.718;9.000;2024-03-02T09:42:19;11.70;64.40
85808;DHT22;76250;48.718;9.000;2024-03-02T09:44:50;11.80;64.70
85808;DHT22;76250;48.718;9.000;2024-03-02T09:47:19;12.00;64.00
85808;DHT22;76250;48.718;9.000;2024-03-02T09:49:47;12.10;63.90
85808;DHT22;76250;48.718;9.000;2024-03-02T09:52:16;12.20;63.70
85808;DHT22;76250;48.718;9.000;2024-03-02T09:54:44;12.30;64.00
85808;DHT22;76250;48.718;9.000;2024-03-02T09:57:12;12.50;63.90
85808;DHT22;76250;48.718;9.000;2024-03-02T09:59:40;12.60;62.70
85808;DHT22;76250;48.718;9.000;2024-03-02T10:02:08;12.70;62.10
85808;DHT22;76250;48.718;9.000;2024-03-02T10:04:36;12.80;61.50
85808;DHT22;76250;48.718;9.000;2024-03-02T10:07:14;12.90;62.30
85808;DHT22;76250;48.718;9.000;2024-03-02T10:09:44;13.00;62.40
85808;DHT22;76250;48.718;9.000;2024-03-02T10:12:16;13.10;62.30
85808;DHT22;76250;48.718;9.000;2024-03-02T10:14:45;13.30;61.80
85808;DHT22;76250;48.718;9.000;2024-03-02T10:17:14;13.40;61.30
85808;DHT22;76250;48.718;9.000;2024-03-02T10:19:43;13.50;60.60
85808;DHT22;76250;48.718;9.000;2024-03-02T10:22:11;13.60;60.20
85808;DHT22;76250;48.718;9.000;2024-03-02T10:24:43;13.60;59.70
85808;DHT22;76250;48.718;9.000;2024-03-02T10:27:19;13.70;59.60
85808;DHT22;76250;48.718;9.000;2024-03-02T10:29:50;13.80;59.00
85808;DHT22;76250;48.718;9.000;2024-03-02T10:32:18;13.80;59.50
85808;DHT22;76250;48.718;9.000;2024-03-02T10:34:50;13.90;59.80
85808;DHT22;76250;48.718;9.000;2024-03-02T10:37:18;13.90;60.20
85808;DHT22;76250;48.718;9.000;2024-03-02T10:39:47;14.10;59.30
85808;DHT22;76250;48.718;9.000;2024-03-02T10:42:16;14.20;59.00
85808;DHT22;76250;48.718;9.000;2024-03-02T10:44:45;14.30;59.30
85808;DHT22;76250;48.718;9.000;2024-03-02T10:47:14;14.40;59.00
85808;DHT22;76250;48.718;9.000;2024-03-02T10:49:43;14.50;58.60
85808;DHT22;76250;48.718;9.000;2024-03-02T10:52:13;14.60;57.70
85808;DHT22;76250;48.718;9.000;2024-03-02T10:54:41;14.70;58.10
85808;DHT22;76250;48.718;9.000;2024-03-02T10:57:11;14.80;57.20
85808;DHT22;76250;48.718;9.000;2024-03-02T10:59:51;14.90;57.10
85808;DHT22;76250;48.718;9.000;2024-03-02T11:02:21;15.00;56.60
85808;DHT22;76250;48.718;9.000;2024-03-02T11:04:54;15.10;56.70
85808;DHT22;76250;48.718;9.000;2024-03-02T11:07:23;15.20;55.70
85808;DHT22;76250;48.718;9.000;2024-03-02T11:09:56;15.20;55.70
85808;DHT22;76250;48.718;9.000;2024-03-02T11:12:33;15.30;55.70
85808;DHT22;76250;48.718;9.000;2024-03-02T11:15:10;15.40;55.60
85808;DHT22;76250;48.718;9.000;2024-03-02T11:17:40;15.50;55.60
85808;DHT22;76250;48.718;9.000;2024-03-02T11:20:09;15.50;55.10
85808;DHT22;76250;48.718;9.000;2024-03-02T11:22:38;15.60;56.00
85808;DHT22;76250;48.718;9.000;2024-03-02T11:25:26;15.60;55.20
85808;DHT22;76250;48.718;9.000;2024-03-02T11:33:01;15.90;55.00
85808;DHT22;76250;48.718;9.000;2024-03-02T11:35:41;15.90;55.00
85808;DHT22;76250;48.718;9.000;2024-03-02T11:38:11;15.90;54.70
85808;DHT22;76250;48.718;9.000;2024-03-02T11:40:40;16.00;54.00
85808;DHT22;76250;48.718;9.000;2024-03-02T11:43:09;16.00;53.50
85808;DHT22;76250;48.718;9.000;2024-03-02T11:45:37;16.00;53.60
85808;DHT22;76250;48.718;9.000;2024-03-02T11:48:15;16.00;53.30
85808;DHT22;76250;48.718;9.000;2024-03-02T11:50:49;16.00;53.20
85808;DHT22;76250;48.718;9.000;2024-03-02T11:53:19;16.00;52.60
85808;DHT22;76250;48.718;9.000;2024-03-02T11:55:49;16.00;52.90
85808;DHT22;76250;48.718;9.000;2024-03-02T11:58:18;16.10;53.20
85808;DHT22;76250;48.718;9.000;2024-03-02T12:00:51;16.10;53.70
85808;DHT22;76250;48.718;9.000;2024-03-02T12:03:22;16.20;53.20
85808;DHT22;76250;48.718;9.000;2024-03-02T12:05:52;16.20;52.80
85808;DHT22;76250;48.718;9.000;2024-03-02T12:08:20;16.30;52.70
85808;DHT22;76250;48.718;9.000;2024-03-02T12:10:57;16.30;53.20
85808;DHT22;76250;48.718;9.000;2024-03-02T12:13:26;16.40;52.30
85808;DHT22;76250;48.718;9.000;2024-03-02T12:15:55;16.50;53.10
85808;DHT22;76250;48.718;9.000;2024-03-02T12:18:24;16.50;52.70
85808;DHT22;76250;48.718;9.000;2024-03-02T12:20:54;16.60;52.50
85808;DHT22;76250;48.718;9.000;2024-03-02T12:23:25;16.60;52.50
85808;DHT22;76250;48.718;9.000;2024-03-02T12:25:54;16.70;52.70
85808;DHT22;76250;48.718;9.000;2024-03-02T12:28:22;16.70;52.20
85808;DHT22;76250;48.718;9.000;2024-03-02T12:30:50;16.80;51.90
85808;DHT22;76250;48.718;9.000;2024-03-02T12:33:19;16.80;52.50
85808;DHT22;76250;48.718;9.000;2024-03-02T12:35:49;16.90;52.60
85808;DHT22;76250;48.718;9.000;2024-03-02T12:38:17;16.90;52.60
85808;DHT22;76250;48.718;9.000;2024-03-02T12:40:48;16.90;51.70
85808;DHT22;76250;48.718;9.000;2024-03-02T12:43:17;17.00;52.40
85808;DHT22;76250;48.718;9.000;2024-03-02T12:45:45;17.00;52.30
85808;DHT22;76250;48.718;9.000;2024-03-02T12:48:13;17.10;51.70
85808;DHT22;76250;48.718;9.000;2024-03-02T12:50:42;17.10;51.50
85808;DHT22;76250;48.718;9.000;2024-03-02T12:53:15;17.20;51.90
85808;DHT22;76250;48.718;9.000;2024-03-02T12:55:44;17.20;50.70
85808;DHT22;76250;48.718;9.000;2024-03-02T12:58:22;17.20;50.40
85808;DHT22;76250;48.718;9.000;2024-03-02T13:00:50;17.20;50.20
85808;DHT22;76250;48.718;9.000;2024-03-02T13:03:18;17.20;50.70
85808;DHT22;76250;48.718;9.000;2024-03-02T13:05:50;17.30;49.80
85808;DHT22;76250;48.718;9.000;2024-03-02T13:08:18;17.30;51.00
85808;DHT22;76250;48.718;9.000;2024-03-02T13:10:46;17.30;50.60
85808;DHT22;76250;48.718;9.000;2024-03-02T13:13:14;17.40;51.00
85808;DHT22;76250;48.718;9.000;2024-03-02T13:15:42;17.40;50.70
85808;DHT22;76250;48.718;9.000;2024-03-02T13:18:11;17.50;51.50
85808;DHT22;76250;48.718;9.000;2024-03-02T13:20:39;17.50;50.80
85808;DHT22;76250;48.718;9.000;2024-03-02T13:23:07;17.60;50.50
85808;DHT22;76250;48.718;9.000;2024-03-02T13:25:35;17.60;49.90
85808;DHT22;76250;48.718;9.000;2024-03-02T13:28:03;17.70;49.80
85808;DHT22;76250;48.718;9.000;2024-03-02T13:30:32;17.70;49.30
85808;DHT22;76250;48.718;9.000;2024-03-02T13:33:00;17.70;49.10
85808;DHT22;76250;48.718;9.000;2024-03-02T13:35:28;17.70;48.10
85808;DHT22;76250;48.718;9.000;2024-03-02T13:37:56;17.60;47.70
85808;DHT22;76250;48.718;9.000;2024-03-02T13:40:24;17.60;48.70
85808;DHT22;76250;48.718;9.000;2024-03-02T13:42:52;17.50;48.70
85808;DHT22;76250;48.718;9.000;2024-03-02T13:45:21;17.50;48.10
85808;DHT22;76250;48.718;9.000;2024-03-02T13:47:50;17.50;48.70
85808;DHT22;76250;48.718;9.000;2024-03-02T13:50:18;17.40;48.40
85808;DHT22;76250;48.718;9.000;2024-03-02T13:52:46;17.30;48.00
85808;DHT22;76250;48.718;9.000;2024-03-02T13:55:14;17.30;47.50
85808;DHT22;76250;48.718;9.000;2024-03-02T13:57:42;17.20;47.80
85808;DHT22;76250;48.718;9.000;2024-03-02T14:00:10;17.10;47.90
85808;DHT22;76250;48.718;9.000;2024-03-02T14:02:40;17.10;47.70
85808;DHT22;76250;48.718;9.000;2024-03-02T14:05:08;17.00;47.50
85808;DHT22;76250;48.718;9.000;2024-03-02T14:07:40;17.00;47.50
85808;DHT22;76250;48.718;9.000;2024-03-02T14:10:09;16.90;47.70
85808;DHT22;76250;48.718;9.000;2024-03-02T14:12:37;16.90;48.10
85808;DHT22;76250;48.718;9.000;2024-03-02T14:15:06;16.90;48.30
85808;DHT22;76250;48.718;9.000;2024-03-02T14:17:34;16.90;48.60
85808;DHT22;76250;48.718;9.000;2024-03-02T14:20:02;16.90;48.20
85808;DHT22;76250;48.718;9.000;2024-03-02T14:22:32;16.90;47.40
85808;DHT22;76250;48.718;9.000;2024-03-02T14:25:01;17.00;47.80
85808;DHT22;76250;48.718;9.000;2024-03-02T14:27:29;17.00;48.10
85808;DHT22;76250;48.718;9.000;2024-03-02T14:30:17;17.10;48.70
85808;DHT22;76250;48.718;9.000;2024-03-02T14:32:45;17.10;48.00
85808;DHT22;76250;48.718;9.000;2024-03-02T14:35:13;17.20;47.90
85808;DHT22;76250;48.718;9.000;2024-03-02T14:37:41;17.20;48.60
85808;DHT22;76250;48.718;9.000;2024-03-02T14:40:10;17.20;48.40
85808;DHT22;76250;48.718;9.000;2024-03-02T14:42:39;17.30;47.80
85808;DHT22;76250;48.718;9.000;2024-03-02T14:45:07;17.30;48.20
85808;DHT22;76250;48.718;9.000;2024-03-02T14:47:36;17.40;47.30
85808;DHT22;76250;48.718;9.000;2024-03-02T14:50:04;17.40;48.10
85808;DHT22;76250;48.718;9.000;2024-03-02T14:52:36;17.50;48.20
85808;DHT22;76250;48.718;9.000;2024-03-02T14:55:04;17.50;48.70
85808;DHT22;76250;48.718;9.000;2024-03-02T14:57:35;17.60;48.70
85808;DHT22;76250;48.718;9.000;2024-03-02T15:00:04;17.60;48.70
85808;DHT22;76250;48.718;9.000;2024-03-02T15:02:35;17.70;48.80
85808;DHT22;76250;48.718;9.000;2024-03-02T15:05:03;17.70;48.90
85808;DHT22;76250;48.718;9.000;2024-03-02T15:07:33;17.80;48.40
85808;DHT22;76250;48.718;9.000;2024-03-02T15:10:01;17.80;48.50
85808;DHT22;76250;48.718;9.000;2024-03-02T15:12:29;17.80;48.40
85808;DHT22;76250;48.718;9.000;2024-03-02T15:14:57;17.80;47.50
85808;DHT22;76250;48.718;9.000;2024-03-02T15:17:26;17.80;47.60
85808;DHT22;76250;48.718;9.000;2024-03-02T15:19:54;17.70;47.60
85808;DHT22;76250;48.718;9.000;2024-03-02T15:22:22;17.70;47.70
85808;DHT22;76250;48.718;9.000;2024-03-02T15:24:50;17.60;47.30
85808;DHT22;76250;48.718;9.000;2024-03-02T15:27:18;17.60;47.30
85808;DHT22;76250;48.718;9.000;2024-03-02T15:29:46;17.50;47.70
85808;DHT22;76250;48.718;9.000;2024-03-02T15:32:15;17.40;48.10
85808;DHT22;76250;48.718;9.000;2024-03-02T15:34:43;17.30;48.00
85808;DHT22;76250;48.718;9.000;2024-03-02T15:37:12;17.20;47.50
85808;DHT22;76250;48.718;9.000;2024-03-02T15:39:40;17.10;47.60
85808;DHT22;76250;48.718;9.000;2024-03-02T15:42:08;17.10;47.90
85808;DHT22;76250;48.718;9.000;2024-03-02T15:44:36;17.00;48.30
85808;DHT22;76250;48.718;9.000;2024-03-02T15:47:04;17.00;48.30
85808;DHT22;76250;48.718;9.000;2024-03-02T15:49:32;16.90;48.00
85808;DHT22;76250;48.718;9.000;2024-03-02T15:52:00;16.80;47.90
85808;DHT22;76250;48.718;9.000;2024-03-02T15:54:28;16.80;48.30
85808;DHT22;76250;48.718;9.000;2024-03-02T15:56:56;16.70;47.70
85808;DHT22;76250;48.718;9.000;2024-03-02T15:59:24;16.70;48.00